sensor_id;sensor_type;location;lat;lon;timestamp;P1;durP1;ratioP1;P2;durP2;ratioP2
12623;SDS011;6377;42.836;23.998;2023-04-22T00:00:45;8.77;;;7.83;;
12623;SDS011;6377;42.836;23.998;2023-04-22T00:03:14;9.60;;;7.53;;
12623;SDS011;6377;42.836;23.998;2023-04-22T00:05:41;10.77;;;8.27;;
12623;SDS011;6377;42.836;23.998;2023-04-22T00:08:09;31.23;;;19.40;;
12623;SDS011;6377;42.836;23.998;2023-04-22T00:10:36;24.50;;;16.70;;
12623;SDS011;6377;42.836;23.998;2023-04-22T00:13:03;17.97;;;11.10;;
12623;SDS011;6377;42.836;23.998;2023-04-22T00:15:30;11.87;;;9.70;;
12623;SDS011;6377;42.836;23.998;2023-04-22T00:17:58;13.00;;;9.87;;
12623;SDS011;6377;42.836;23.998;2023-04-22T00:20:26;14.77;;;10.97;;
12623;SDS011;6377;42.836;23.998;2023-04-22T00:22:56;14.30;;;9.87;;
12623;SDS011;6377;42.836;23.998;2023-04-22T00:25:24;11.73;;;9.33;;
12623;SDS011;6377;42.836;23.998;2023-04-22T00:27:51;12.80;;;9.43;;
12623;SDS011;6377;42.836;23.998;2023-04-22T00:30:18;13.70;;;9.27;;
12623;SDS011;6377;42.836;23.998;2023-04-22T00:32:45;12.67;;;8.60;;
12623;SDS011;6377;42.836;23.998;2023-04-22T00:35:13;12.70;;;8.90;;
12623;SDS011;6377;42.836;23.998;2023-04-22T00:37:42;11.27;;;8.67;;
12623;SDS011;6377;42.836;23.998;2023-04-22T00:40:09;15.57;;;9.87;;
12623;SDS011;6377;42.836;23.998;2023-04-22T00:42:36;14.70;;;9.50;;
12623;SDS011;6377;42.836;23.998;2023-04-22T00:45:05;12.33;;;9.07;;
12623;SDS011;6377;42.836;23.998;2023-04-22T00:47:36;12.53;;;9.23;;
12623;SDS011;6377;42.836;23.998;2023-04-22T00:50:04;10.77;;;8.63;;
12623;SDS011;6377;42.836;23.998;2023-04-22T00:52:32;11.80;;;8.50;;
12623;SDS011;6377;42.836;23.998;2023-04-22T00:55:01;12.17;;;8.47;;
12623;SDS011;6377;42.836;23.998;2023-04-22T00:57:28;14.13;;;8.80;;
12623;SDS011;6377;42.836;23.998;2023-04-22T00:59:56;12.57;;;9.23;;
12623;SDS011;6377;42.836;23.998;2023-04-22T01:02:23;13.03;;;9.23;;
12623;SDS011;6377;42.836;23.998;2023-04-22T01:04:51;16.93;;;11.27;;
12623;SDS011;6377;42.836;23.998;2023-04-22T01:07:19;18.13;;;12.57;;
12623;SDS011;6377;42.836;23.998;2023-04-22T01:09:47;17.70;;;12.50;;
12623;SDS011;6377;42.836;23.998;2023-04-22T01:12:15;12.73;;;8.57;;
12623;SDS011;6377;42.836;23.998;2023-04-22T01:14:42;19.13;;;13.80;;
12623;SDS011;6377;42.836;23.998;2023-04-22T01:17:10;20.60;;;13.47;;
12623;SDS011;6377;42.836;23.998;2023-04-22T01:19:39;26.17;;;16.87;;
12623;SDS011;6377;42.836;23.998;2023-04-22T01:22:07;25.97;;;15.97;;
12623;SDS011;6377;42.836;23.998;2023-04-22T01:24:39;18.50;;;13.63;;
12623;SDS011;6377;42.836;23.998;2023-04-22T01:27:07;19.30;;;13.80;;
12623;SDS011;6377;42.836;23.998;2023-04-22T01:29:35;17.13;;;12.17;;
12623;SDS011;6377;42.836;23.998;2023-04-22T01:32:03;16.10;;;10.83;;
12623;SDS011;6377;42.836;23.998;2023-04-22T01:34:31;15.77;;;10.67;;
12623;SDS011;6377;42.836;23.998;2023-04-22T01:36:58;17.03;;;11.07;;
12623;SDS011;6377;42.836;23.998;2023-04-22T01:39:25;13.23;;;10.50;;
12623;SDS011;6377;42.836;23.998;2023-04-22T01:41:54;13.63;;;9.53;;
12623;SDS011;6377;42.836;23.998;2023-04-22T01:44:22;12.10;;;8.80;;
12623;SDS011;6377;42.836;23.998;2023-04-22T01:46:49;10.77;;;8.00;;
12623;SDS011;6377;42.836;23.998;2023-04-22T01:49:17;13.00;;;10.23;;
12623;SDS011;6377;42.836;23.998;2023-04-22T01:51:44;17.50;;;13.87;;
12623;SDS011;6377;42.836;23.998;2023-04-22T01:54:11;22.83;;;16.83;;
12623;SDS011;6377;42.836;23.998;2023-04-22T01:56:39;30.93;;;23.20;;
12623;SDS011;6377;42.836;23.998;2023-04-22T01:59:09;24.00;;;14.10;;
12623;SDS011;6377;42.836;23.998;2023-04-22T02:01:36;15.27;;;10.97;;
12623;SDS011;6377;42.836;23.998;2023-04-22T02:04:04;15.27;;;11.63;;
12623;SDS011;6377;42.836;23.998;2023-04-22T02:06:31;16.83;;;11.40;;
12623;SDS011;6377;42.836;23.998;2023-04-22T02:08:58;16.50;;;10.13;;
12623;SDS011;6377;42.836;23.998;2023-04-22T02:11:25;15.83;;;10.70;;
12623;SDS011;6377;42.836;23.998;2023-04-22T02:13:52;13.93;;;9.80;;
12623;SDS011;6377;42.836;23.998;2023-04-22T02:16:21;14.13;;;10.63;;
12623;SDS011;6377;42.836;23.998;2023-04-22T02:18:48;10.07;;;8.33;;
12623;SDS011;6377;42.836;23.998;2023-04-22T02:21:16;9.63;;;8.33;;
12623;SDS011;6377;42.836;23.998;2023-04-22T02:23:43;11.20;;;8.10;;
12623;SDS011;6377;42.836;23.998;2023-04-22T02:26:10;9.37;;;6.87;;
12623;SDS011;6377;42.836;23.998;2023-04-22T02:28:37;10.80;;;7.87;;
12623;SDS011;6377;42.836;23.998;2023-04-22T02:31:05;15.03;;;8.27;;
12623;SDS011;6377;42.836;23.998;2023-04-22T02:33:34;10.57;;;7.70;;
12623;SDS011;6377;42.836;23.998;2023-04-22T02:36:01;11.00;;;7.43;;
12623;SDS011;6377;42.836;23.998;2023-04-22T02:38:29;10.63;;;7.97;;
12623;SDS011;6377;42.836;23.998;2023-04-22T02:40:56;12.40;;;10.10;;
12623;SDS011;6377;42.836;23.998;2023-04-22T02:43:23;13.43;;;10.57;;
12623;SDS011;6377;42.836;23.998;2023-04-22T02:45:50;15.23;;;11.37;;
12623;SDS011;6377;42.836;23.998;2023-04-22T02:48:17;15.03;;;10.83;;
12623;SDS011;6377;42.836;23.998;2023-04-22T02:50:46;12.43;;;10.50;;
12623;SDS011;6377;42.836;23.998;2023-04-22T02:53:13;20.17;;;16.63;;
12623;SDS011;6377;42.836;23.998;2023-04-22T02:55:40;17.13;;;12.67;;
12623;SDS011;6377;42.836;23.998;2023-04-22T02:58:08;16.13;;;12.00;;
12623;SDS011;6377;42.836;23.998;2023-04-22T03:00:35;13.53;;;9.37;;
12623;SDS011;6377;42.836;23.998;2023-04-22T03:03:02;16.13;;;12.13;;
12623;SDS011;6377;42.836;23.998;2023-04-22T03:05:29;19.70;;;14.00;;
12623;SDS011;6377;42.836;23.998;2023-04-22T03:07:58;11.03;;;9.90;;
12623;SDS011;6377;42.836;23.998;2023-04-22T03:10:25;16.50;;;13.07;;
12623;SDS011;6377;42.836;23.998;2023-04-22T03:12:52;16.43;;;10.87;;
12623;SDS011;6377;42.836;23.998;2023-04-22T03:15:20;15.20;;;11.43;;
12623;SDS011;6377;42.836;23.998;2023-04-22T03:17:47;14.67;;;10.93;;
12623;SDS011;6377;42.836;23.998;2023-04-22T03:20:14;16.60;;;13.53;;
12623;SDS011;6377;42.836;23.998;2023-04-22T03:22:42;39.23;;;26.23;;
12623;SDS011;6377;42.836;23.998;2023-04-22T03:25:11;22.17;;;16.10;;
12623;SDS011;6377;42.836;23.998;2023-04-22T03:27:38;13.43;;;10.20;;
12623;SDS011;6377;42.836;23.998;2023-04-22T03:30:05;17.93;;;11.77;;
12623;SDS011;6377;42.836;23.998;2023-04-22T03:32:33;15.37;;;10.80;;
12623;SDS011;6377;42.836;23.998;2023-04-22T03:35:00;21.70;;;15.17;;
12623;SDS011;6377;42.836;23.998;2023-04-22T03:37:28;20.13;;;15.07;;
12623;SDS011;6377;42.836;23.998;2023-04-22T03:39:55;15.70;;;12.87;;
12623;SDS011;6377;42.836;23.998;2023-04-22T03:42:24;17.50;;;12.33;;
12623;SDS011;6377;42.836;23.998;2023-04-22T03:44:51;18.33;;;13.27;;
12623;SDS011;6377;42.836;23.998;2023-04-22T03:47:18;22.17;;;14.30;;
12623;SDS011;6377;42.836;23.998;2023-04-22T03:49:45;21.23;;;17.10;;
12623;SDS011;6377;42.836;23.998;2023-04-22T03:52:12;22.37;;;15.07;;
12623;SDS011;6377;42.836;23.998;2023-04-22T03:54:39;19.20;;;14.07;;
12623;SDS011;6377;42.836;23.998;2023-04-22T03:57:06;19.40;;;13.07;;
12623;SDS011;6377;42.836;23.998;2023-04-22T03:59:35;20.27;;;14.00;;
12623;SDS011;6377;42.836;23.998;2023-04-22T04:02:02;23.67;;;16.47;;
12623;SDS011;6377;42.836;23.998;2023-04-22T04:04:29;24.07;;;15.13;;
12623;SDS011;6377;42.836;23.998;2023-04-22T04:06:57;24.53;;;15.83;;
12623;SDS011;6377;42.836;23.998;2023-04-22T04:09:24;29.47;;;17.97;;
12623;SDS011;6377;42.836;23.998;2023-04-22T04:11:51;28.20;;;18.30;;
12623;SDS011;6377;42.836;23.998;2023-04-22T04:14:18;34.53;;;20.03;;
12623;SDS011;6377;42.836;23.998;2023-04-22T04:16:47;33.07;;;19.20;;
12623;SDS011;6377;42.836;23.998;2023-04-22T04:19:14;32.03;;;19.20;;
12623;SDS011;6377;42.836;23.998;2023-04-22T04:21:41;24.33;;;17.27;;
12623;SDS011;6377;42.836;23.998;2023-04-22T04:24:09;22.97;;;15.23;;
12623;SDS011;6377;42.836;23.998;2023-04-22T04:26:36;21.20;;;15.43;;
12623;SDS011;6377;42.836;23.998;2023-04-22T04:29:04;25.97;;;16.50;;
12623;SDS011;6377;42.836;23.998;2023-04-22T04:31:31;27.87;;;19.43;;
12623;SDS011;6377;42.836;23.998;2023-04-22T04:33:59;33.23;;;20.27;;
12623;SDS011;6377;42.836;23.998;2023-04-22T04:36:26;37.30;;;22.83;;
12623;SDS011;6377;42.836;23.998;2023-04-22T04:38:54;34.60;;;23.10;;
12623;SDS011;6377;42.836;23.998;2023-04-22T04:41:21;41.90;;;24.90;;
12623;SDS011;6377;42.836;23.998;2023-04-22T04:43:51;42.33;;;25.97;;
12623;SDS011;6377;42.836;23.998;2023-04-22T04:46:18;89.17;;;50.33;;
12623;SDS011;6377;42.836;23.998;2023-04-22T04:48:45;75.00;;;43.30;;
12623;SDS011;6377;42.836;23.998;2023-04-22T04:51:16;43.00;;;22.43;;
12623;SDS011;6377;42.836;23.998;2023-04-22T04:53:43;56.60;;;29.97;;
12623;SDS011;6377;42.836;23.998;2023-04-22T04:56:10;38.27;;;21.33;;
12623;SDS011;6377;42.836;23.998;2023-04-22T04:58:37;34.77;;;19.00;;
12623;SDS011;6377;42.836;23.998;2023-04-22T05:01:05;29.80;;;19.63;;
12623;SDS011;6377;42.836;23.998;2023-04-22T05:03:32;25.87;;;16.53;;
12623;SDS011;6377;42.836;23.998;2023-04-22T05:05:59;25.87;;;17.23;;
12623;SDS011;6377;42.836;23.998;2023-04-22T05:08:28;29.93;;;21.93;;
12623;SDS011;6377;42.836;23.998;2023-04-22T05:10:55;38.97;;;24.77;;
12623;SDS011;6377;42.836;23.998;2023-04-22T05:13:22;40.30;;;26.10;;
12623;SDS011;6377;42.836;23.998;2023-04-22T05:15:50;31.97;;;24.07;;
12623;SDS011;6377;42.836;23.998;2023-04-22T05:18:17;35.73;;;24.57;;
12623;SDS011;6377;42.836;23.998;2023-04-22T05:20:45;37.27;;;25.37;;
12623;SDS011;6377;42.836;23.998;2023-04-22T05:23:15;37.37;;;24.93;;
12623;SDS011;6377;42.836;23.998;2023-04-22T05:25:44;34.03;;;23.53;;
12623;SDS011;6377;42.836;23.998;2023-04-22T05:28:11;33.13;;;23.53;;
12623;SDS011;6377;42.836;23.998;2023-04-22T05:30:38;38.13;;;28.27;;
12623;SDS011;6377;42.836;23.998;2023-04-22T05:33:05;47.73;;;34.20;;
12623;SDS011;6377;42.836;23.998;2023-04-22T05:35:33;32.60;;;23.10;;
12623;SDS011;6377;42.836;23.998;2023-04-22T05:38:01;37.43;;;26.17;;
12623;SDS011;6377;42.836;23.998;2023-04-22T05:40:28;42.53;;;29.43;;
12623;SDS011;6377;42.836;23.998;2023-04-22T05:42:57;40.77;;;28.60;;
12623;SDS011;6377;42.836;23.998;2023-04-22T05:45:24;39.13;;;27.67;;
12623;SDS011;6377;42.836;23.998;2023-04-22T05:47:51;46.87;;;30.93;;
12623;SDS011;6377;42.836;23.998;2023-04-22T05:50:18;41.77;;;28.97;;
12623;SDS011;6377;42.836;23.998;2023-04-22T05:52:45;37.70;;;25.83;;
12623;SDS011;6377;42.836;23.998;2023-04-22T05:55:13;41.37;;;30.80;;
12623;SDS011;6377;42.836;23.998;2023-04-22T05:57:40;60.10;;;44.77;;
12623;SDS011;6377;42.836;23.998;2023-04-22T06:00:09;38.37;;;29.40;;
12623;SDS011;6377;42.836;23.998;2023-04-22T06:02:37;39.83;;;30.33;;
12623;SDS011;6377;42.836;23.998;2023-04-22T06:05:05;34.13;;;23.37;;
12623;SDS011;6377;42.836;23.998;2023-04-22T06:07:32;34.43;;;25.00;;
12623;SDS011;6377;42.836;23.998;2023-04-22T06:10:03;31.53;;;23.53;;
12623;SDS011;6377;42.836;23.998;2023-04-22T06:12:31;31.43;;;22.83;;
12623;SDS011;6377;42.836;23.998;2023-04-22T06:14:59;31.67;;;23.33;;
12623;SDS011;6377;42.836;23.998;2023-04-22T06:17:28;35.73;;;24.77;;
12623;SDS011;6377;42.836;23.998;2023-04-22T06:19:56;34.63;;;23.97;;
12623;SDS011;6377;42.836;23.998;2023-04-22T06:22:23;30.03;;;21.77;;
12623;SDS011;6377;42.836;23.998;2023-04-22T06:24:50;23.50;;;17.20;;
12623;SDS011;6377;42.836;23.998;2023-04-22T06:27:17;24.20;;;17.57;;
12623;SDS011;6377;42.836;23.998;2023-04-22T06:29:45;16.93;;;12.37;;
12623;SDS011;6377;42.836;23.998;2023-04-22T06:32:12;16.27;;;13.57;;
12623;SDS011;6377;42.836;23.998;2023-04-22T06:34:41;14.90;;;10.97;;
12623;SDS011;6377;42.836;23.998;2023-04-22T06:37:08;14.87;;;10.93;;
12623;SDS011;6377;42.836;23.998;2023-04-22T06:39:35;10.67;;;9.00;;
12623;SDS011;6377;42.836;23.998;2023-04-22T06:42:02;12.57;;;9.40;;
12623;SDS011;6377;42.836;23.998;2023-04-22T06:44:30;12.10;;;9.70;;
12623;SDS011;6377;42.836;23.998;2023-04-22T06:46:57;10.13;;;8.30;;
12623;SDS011;6377;42.836;23.998;2023-04-22T06:49:24;8.47;;;7.47;;
12623;SDS011;6377;42.836;23.998;2023-04-22T06:51:53;10.03;;;8.20;;
12623;SDS011;6377;42.836;23.998;2023-04-22T06:54:20;14.73;;;8.70;;
12623;SDS011;6377;42.836;23.998;2023-04-22T06:56:48;8.90;;;7.07;;
12623;SDS011;6377;42.836;23.998;2023-04-22T06:59:15;11.27;;;7.47;;
12623;SDS011;6377;42.836;23.998;2023-04-22T07:01:42;9.07;;;7.30;;
12623;SDS011;6377;42.836;23.998;2023-04-22T07:04:10;7.67;;;6.70;;
12623;SDS011;6377;42.836;23.998;2023-04-22T07:06:37;7.27;;;5.97;;
12623;SDS011;6377;42.836;23.998;2023-04-22T07:09:06;8.00;;;5.83;;
12623;SDS011;6377;42.836;23.998;2023-04-22T07:11:33;6.63;;;5.40;;
12623;SDS011;6377;42.836;23.998;2023-04-22T07:14:01;7.03;;;5.40;;
12623;SDS011;6377;42.836;23.998;2023-04-22T07:16:28;6.43;;;5.60;;
12623;SDS011;6377;42.836;23.998;2023-04-22T07:18:55;6.80;;;4.83;;
12623;SDS011;6377;42.836;23.998;2023-04-22T07:21:23;5.87;;;4.80;;
12623;SDS011;6377;42.836;23.998;2023-04-22T07:23:50;9.60;;;5.33;;
12623;SDS011;6377;42.836;23.998;2023-04-22T07:26:19;9.27;;;5.50;;
12623;SDS011;6377;42.836;23.998;2023-04-22T07:28:46;5.07;;;4.33;;
12623;SDS011;6377;42.836;23.998;2023-04-22T07:31:14;7.43;;;5.33;;
12623;SDS011;6377;42.836;23.998;2023-04-22T07:33:41;9.10;;;6.20;;
12623;SDS011;6377;42.836;23.998;2023-04-22T07:36:08;8.90;;;6.07;;
12623;SDS011;6377;42.836;23.998;2023-04-22T07:38:35;5.17;;;4.67;;
12623;SDS011;6377;42.836;23.998;2023-04-22T07:41:03;5.17;;;4.30;;
12623;SDS011;6377;42.836;23.998;2023-04-22T07:43:32;7.90;;;5.20;;
12623;SDS011;6377;42.836;23.998;2023-04-22T07:45:59;11.40;;;5.10;;
12623;SDS011;6377;42.836;23.998;2023-04-22T07:48:26;7.00;;;5.20;;
12623;SDS011;6377;42.836;23.998;2023-04-22T07:50:53;6.93;;;4.93;;
12623;SDS011;6377;42.836;23.998;2023-04-22T07:53:21;9.63;;;6.47;;
12623;SDS011;6377;42.836;23.998;2023-04-22T07:55:48;7.63;;;5.87;;
12623;SDS011;6377;42.836;23.998;2023-04-22T07:58:15;8.27;;;6.43;;
12623;SDS011;6377;42.836;23.998;2023-04-22T08:00:44;7.70;;;5.60;;
12623;SDS011;6377;42.836;23.998;2023-04-22T08:03:11;6.23;;;5.30;;
12623;SDS011;6377;42.836;23.998;2023-04-22T08:05:39;7.00;;;5.97;;
12623;SDS011;6377;42.836;23.998;2023-04-22T08:08:06;5.53;;;5.03;;
12623;SDS011;6377;42.836;23.998;2023-04-22T08:10:33;8.03;;;5.10;;
12623;SDS011;6377;42.836;23.998;2023-04-22T08:13:01;8.60;;;6.00;;
12623;SDS011;6377;42.836;23.998;2023-04-22T08:15:28;11.17;;;5.80;;
12623;SDS011;6377;42.836;23.998;2023-04-22T08:17:57;11.00;;;7.20;;
12623;SDS011;6377;42.836;23.998;2023-04-22T08:20:24;12.20;;;7.47;;
12623;SDS011;6377;42.836;23.998;2023-04-22T08:22:51;10.83;;;7.30;;
12623;SDS011;6377;42.836;23.998;2023-04-22T08:25:24;6.50;;;4.93;;
12623;SDS011;6377;42.836;23.998;2023-04-22T08:27:52;12.47;;;7.03;;
12623;SDS011;6377;42.836;23.998;2023-04-22T08:30:19;7.87;;;6.23;;
12623;SDS011;6377;42.836;23.998;2023-04-22T08:32:46;6.53;;;5.10;;
12623;SDS011;6377;42.836;23.998;2023-04-22T08:35:15;13.97;;;9.17;;
12623;SDS011;6377;42.836;23.998;2023-04-22T08:37:42;18.93;;;10.40;;
12623;SDS011;6377;42.836;23.998;2023-04-22T08:40:09;15.70;;;9.23;;
12623;SDS011;6377;42.836;23.998;2023-04-22T08:42:37;7.37;;;5.60;;
12623;SDS011;6377;42.836;23.998;2023-04-22T08:45:05;9.63;;;5.83;;
12623;SDS011;6377;42.836;23.998;2023-04-22T08:47:34;11.57;;;6.30;;
12623;SDS011;6377;42.836;23.998;2023-04-22T08:50:03;10.10;;;8.27;;
12623;SDS011;6377;42.836;23.998;2023-04-22T08:52:34;10.73;;;8.27;;
12623;SDS011;6377;42.836;23.998;2023-04-22T08:55:01;8.60;;;7.70;;
12623;SDS011;6377;42.836;23.998;2023-04-22T08:57:28;9.67;;;6.37;;
12623;SDS011;6377;42.836;23.998;2023-04-22T08:59:56;7.80;;;6.60;;
12623;SDS011;6377;42.836;23.998;2023-04-22T09:02:24;10.17;;;6.40;;
12623;SDS011;6377;42.836;23.998;2023-04-22T09:04:52;7.70;;;5.90;;
12623;SDS011;6377;42.836;23.998;2023-04-22T09:07:21;9.67;;;5.07;;
12623;SDS011;6377;42.836;23.998;2023-04-22T09:09:51;7.70;;;5.23;;
12623;SDS011;6377;42.836;23.998;2023-04-22T09:12:20;9.23;;;5.50;;
12623;SDS011;6377;42.836;23.998;2023-04-22T09:14:47;6.80;;;4.93;;
12623;SDS011;6377;42.836;23.998;2023-04-22T09:17:15;10.37;;;6.67;;
12623;SDS011;6377;42.836;23.998;2023-04-22T09:19:42;5.87;;;5.27;;
12623;SDS011;6377;42.836;23.998;2023-04-22T09:22:10;8.20;;;4.97;;
12623;SDS011;6377;42.836;23.998;2023-04-22T09:24:43;7.03;;;5.40;;
12623;SDS011;6377;42.836;23.998;2023-04-22T09:27:17;10.90;;;6.57;;
12623;SDS011;6377;42.836;23.998;2023-04-22T09:29:46;5.30;;;4.47;;
12623;SDS011;6377;42.836;23.998;2023-04-22T09:32:14;6.90;;;4.93;;
12623;SDS011;6377;42.836;23.998;2023-04-22T09:34:51;7.60;;;4.60;;
12623;SDS011;6377;42.836;23.998;2023-04-22T09:37:22;7.67;;;5.03;;
12623;SDS011;6377;42.836;23.998;2023-04-22T09:39:51;6.77;;;4.87;;
12623;SDS011;6377;42.836;23.998;2023-04-22T09:42:20;9.87;;;4.63;;
12623;SDS011;6377;42.836;23.998;2023-04-22T09:44:48;5.93;;;4.33;;
12623;SDS011;6377;42.836;23.998;2023-04-22T09:47:17;5.03;;;4.13;;
12623;SDS011;6377;42.836;23.998;2023-04-22T09:49:45;5.23;;;4.23;;
12623;SDS011;6377;42.836;23.998;2023-04-22T09:52:19;4.60;;;3.80;;
12623;SDS011;6377;42.836;23.998;2023-04-22T09:54:49;5.20;;;4.10;;
12623;SDS011;6377;42.836;23.998;2023-04-22T09:57:17;6.50;;;4.67;;
12623;SDS011;6377;42.836;23.998;2023-04-22T09:59:46;5.50;;;4.20;;
12623;SDS011;6377;42.836;23.998;2023-04-22T10:02:17;6.30;;;4.13;;
12623;SDS011;6377;42.836;23.998;2023-04-22T10:04:45;5.20;;;4.20;;
12623;SDS011;6377;42.836;23.998;2023-04-22T10:07:13;5.37;;;4.10;;
12623;SDS011;6377;42.836;23.998;2023-04-22T10:09:41;6.73;;;4.20;;
12623;SDS011;6377;42.836;23.998;2023-04-22T10:12:09;7.27;;;3.80;;
12623;SDS011;6377;42.836;23.998;2023-04-22T10:14:37;5.80;;;3.80;;
12623;SDS011;6377;42.836;23.998;2023-04-22T10:17:05;6.40;;;4.50;;
12623;SDS011;6377;42.836;23.998;2023-04-22T10:19:33;11.40;;;6.10;;
12623;SDS011;6377;42.836;23.998;2023-04-22T10:22:01;16.07;;;9.87;;
12623;SDS011;6377;42.836;23.998;2023-04-22T10:24:33;5.50;;;4.70;;
12623;SDS011;6377;42.836;23.998;2023-04-22T10:27:02;8.83;;;5.33;;
12623;SDS011;6377;42.836;23.998;2023-04-22T10:29:35;6.37;;;4.97;;
12623;SDS011;6377;42.836;23.998;2023-04-22T10:32:04;6.90;;;4.23;;
12623;SDS011;6377;42.836;23.998;2023-04-22T10:34:49;5.03;;;4.20;;
12623;SDS011;6377;42.836;23.998;2023-04-22T10:37:36;8.97;;;4.40;;
12623;SDS011;6377;42.836;23.998;2023-04-22T10:40:07;5.13;;;4.03;;
12623;SDS011;6377;42.836;23.998;2023-04-22T10:42:40;6.60;;;4.53;;
12623;SDS011;6377;42.836;23.998;2023-04-22T10:45:12;8.27;;;4.43;;
12623;SDS011;6377;42.836;23.998;2023-04-22T10:47:42;8.40;;;4.43;;
12623;SDS011;6377;42.836;23.998;2023-04-22T10:50:17;7.23;;;4.63;;
12623;SDS011;6377;42.836;23.998;2023-04-22T10:52:48;7.27;;;4.30;;
12623;SDS011;6377;42.836;23.998;2023-04-22T10:55:17;5.17;;;4.30;;
12623;SDS011;6377;42.836;23.998;2023-04-22T10:57:46;7.23;;;5.40;;
12623;SDS011;6377;42.836;23.998;2023-04-22T11:00:15;6.50;;;4.07;;
12623;SDS011;6377;42.836;23.998;2023-04-22T11:02:51;6.67;;;4.77;;
12623;SDS011;6377;42.836;23.998;2023-04-22T11:05:20;6.23;;;4.87;;
12623;SDS011;6377;42.836;23.998;2023-04-22T11:07:50;11.37;;;6.20;;
12623;SDS011;6377;42.836;23.998;2023-04-22T11:10:32;6.20;;;3.80;;
12623;SDS011;6377;42.836;23.998;2023-04-22T11:13:07;6.77;;;5.20;;
12623;SDS011;6377;42.836;23.998;2023-04-22T11:15:36;12.00;;;7.37;;
12623;SDS011;6377;42.836;23.998;2023-04-22T11:18:19;15.07;;;8.00;;
12623;SDS011;6377;42.836;23.998;2023-04-22T11:20:48;13.53;;;7.87;;
12623;SDS011;6377;42.836;23.998;2023-04-22T11:23:21;11.33;;;6.73;;
12623;SDS011;6377;42.836;23.998;2023-04-22T11:25:56;7.77;;;5.63;;
12623;SDS011;6377;42.836;23.998;2023-04-22T11:28:24;22.43;;;12.43;;
12623;SDS011;6377;42.836;23.998;2023-04-22T11:30:52;13.07;;;8.33;;
12623;SDS011;6377;42.836;23.998;2023-04-22T11:33:29;11.50;;;6.40;;
12623;SDS011;6377;42.836;23.998;2023-04-22T11:35:58;4.10;;;3.70;;
12623;SDS011;6377;42.836;23.998;2023-04-22T11:38:25;7.30;;;4.53;;
12623;SDS011;6377;42.836;23.998;2023-04-22T11:40:53;5.37;;;3.97;;
12623;SDS011;6377;42.836;23.998;2023-04-22T11:43:22;4.77;;;3.83;;
12623;SDS011;6377;42.836;23.998;2023-04-22T11:45:49;5.33;;;4.00;;
12623;SDS011;6377;42.836;23.998;2023-04-22T11:48:16;5.43;;;4.13;;
12623;SDS011;6377;42.836;23.998;2023-04-22T11:50:45;6.77;;;4.30;;
12623;SDS011;6377;42.836;23.998;2023-04-22T11:53:13;4.70;;;3.53;;
12623;SDS011;6377;42.836;23.998;2023-04-22T11:55:42;7.33;;;3.53;;
12623;SDS011;6377;42.836;23.998;2023-04-22T11:58:11;6.63;;;4.90;;
12623;SDS011;6377;42.836;23.998;2023-04-22T12:00:41;10.20;;;9.20;;
12623;SDS011;6377;42.836;23.998;2023-04-22T12:03:11;7.40;;;6.63;;
12623;SDS011;6377;42.836;23.998;2023-04-22T12:05:40;9.20;;;7.10;;
12623;SDS011;6377;42.836;23.998;2023-04-22T12:08:10;9.77;;;7.70;;
12623;SDS011;6377;42.836;23.998;2023-04-22T12:10:40;8.97;;;7.30;;
12623;SDS011;6377;42.836;23.998;2023-04-22T12:13:08;8.40;;;7.17;;
12623;SDS011;6377;42.836;23.998;2023-04-22T12:15:37;8.30;;;5.43;;
12623;SDS011;6377;42.836;23.998;2023-04-22T12:18:05;6.60;;;4.93;;
12623;SDS011;6377;42.836;23.998;2023-04-22T12:20:33;7.00;;;4.80;;
12623;SDS011;6377;42.836;23.998;2023-04-22T12:23:01;7.70;;;5.10;;
12623;SDS011;6377;42.836;23.998;2023-04-22T12:25:30;4.70;;;4.00;;
12623;SDS011;6377;42.836;23.998;2023-04-22T12:27:59;6.97;;;4.80;;
12623;SDS011;6377;42.836;23.998;2023-04-22T12:30:26;11.87;;;6.87;;
12623;SDS011;6377;42.836;23.998;2023-04-22T12:32:53;15.40;;;8.07;;
12623;SDS011;6377;42.836;23.998;2023-04-22T12:35:21;11.60;;;7.43;;
12623;SDS011;6377;42.836;23.998;2023-04-22T12:37:48;11.90;;;7.17;;
12623;SDS011;6377;42.836;23.998;2023-04-22T12:40:16;10.83;;;5.83;;
12623;SDS011;6377;42.836;23.998;2023-04-22T12:42:45;8.37;;;6.33;;
12623;SDS011;6377;42.836;23.998;2023-04-22T12:45:12;10.87;;;7.57;;
12623;SDS011;6377;42.836;23.998;2023-04-22T12:47:40;8.33;;;6.67;;
12623;SDS011;6377;42.836;23.998;2023-04-22T12:50:09;12.07;;;8.30;;
12623;SDS011;6377;42.836;23.998;2023-04-22T12:52:36;8.43;;;5.90;;
12623;SDS011;6377;42.836;23.998;2023-04-22T12:55:04;11.10;;;9.03;;
12623;SDS011;6377;42.836;23.998;2023-04-22T12:57:32;11.30;;;5.93;;
12623;SDS011;6377;42.836;23.998;2023-04-22T13:00:00;6.17;;;5.57;;
12623;SDS011;6377;42.836;23.998;2023-04-22T13:02:28;12.50;;;9.70;;
12623;SDS011;6377;42.836;23.998;2023-04-22T13:04:55;8.87;;;6.40;;
12623;SDS011;6377;42.836;23.998;2023-04-22T13:07:23;7.90;;;6.47;;
12623;SDS011;6377;42.836;23.998;2023-04-22T13:09:50;9.27;;;5.53;;
12623;SDS011;6377;42.836;23.998;2023-04-22T13:12:18;7.70;;;6.10;;
12623;SDS011;6377;42.836;23.998;2023-04-22T13:14:46;9.27;;;6.13;;
12623;SDS011;6377;42.836;23.998;2023-04-22T13:17:15;7.90;;;7.10;;
12623;SDS011;6377;42.836;23.998;2023-04-22T13:19:42;13.73;;;9.53;;
12623;SDS011;6377;42.836;23.998;2023-04-22T13:22:10;12.27;;;8.47;;
12623;SDS011;6377;42.836;23.998;2023-04-22T13:24:37;12.97;;;7.40;;
12623;SDS011;6377;42.836;23.998;2023-04-22T13:27:04;17.30;;;10.30;;
12623;SDS011;6377;42.836;23.998;2023-04-22T13:29:32;6.63;;;5.17;;
12623;SDS011;6377;42.836;23.998;2023-04-22T13:32:01;8.10;;;4.93;;
12623;SDS011;6377;42.836;23.998;2023-04-22T13:34:30;12.90;;;7.80;;
12623;SDS011;6377;42.836;23.998;2023-04-22T13:36:57;13.80;;;9.57;;
12623;SDS011;6377;42.836;23.998;2023-04-22T13:39:25;11.90;;;8.63;;
12623;SDS011;6377;42.836;23.998;2023-04-22T13:41:52;21.77;;;15.77;;
12623;SDS011;6377;42.836;23.998;2023-04-22T13:44:20;18.87;;;11.47;;
12623;SDS011;6377;42.836;23.998;2023-04-22T13:46:47;38.67;;;26.20;;
12623;SDS011;6377;42.836;23.998;2023-04-22T13:49:14;16.30;;;11.77;;
12623;SDS011;6377;42.836;23.998;2023-04-22T13:51:43;12.97;;;11.07;;
12623;SDS011;6377;42.836;23.998;2023-04-22T13:54:11;16.00;;;10.30;;
12623;SDS011;6377;42.836;23.998;2023-04-22T13:56:38;16.70;;;11.50;;
12623;SDS011;6377;42.836;23.998;2023-04-22T13:59:05;12.10;;;9.77;;
12623;SDS011;6377;42.836;23.998;2023-04-22T14:01:32;15.37;;;12.30;;
12623;SDS011;6377;42.836;23.998;2023-04-22T14:04:02;14.07;;;10.93;;
12623;SDS011;6377;42.836;23.998;2023-04-22T14:06:29;21.17;;;17.57;;
12623;SDS011;6377;42.836;23.998;2023-04-22T14:08:58;10.43;;;7.70;;
12623;SDS011;6377;42.836;23.998;2023-04-22T14:11:25;14.87;;;10.87;;
12623;SDS011;6377;42.836;23.998;2023-04-22T14:13:52;12.80;;;10.57;;
12623;SDS011;6377;42.836;23.998;2023-04-22T14:16:19;8.90;;;7.03;;
12623;SDS011;6377;42.836;23.998;2023-04-22T14:18:47;11.27;;;7.03;;
12623;SDS011;6377;42.836;23.998;2023-04-22T14:21:14;9.80;;;6.20;;
12623;SDS011;6377;42.836;23.998;2023-04-22T14:23:41;8.93;;;6.73;;
12623;SDS011;6377;42.836;23.998;2023-04-22T14:26:11;10.03;;;6.53;;
12623;SDS011;6377;42.836;23.998;2023-04-22T14:28:38;9.53;;;6.83;;
12623;SDS011;6377;42.836;23.998;2023-04-22T14:31:06;6.90;;;5.80;;
12623;SDS011;6377;42.836;23.998;2023-04-22T14:33:34;6.43;;;5.07;;
12623;SDS011;6377;42.836;23.998;2023-04-22T14:36:01;7.33;;;5.60;;
12623;SDS011;6377;42.836;23.998;2023-04-22T14:38:29;8.30;;;4.90;;